createdAt,value
2017-12-20T00:01:29.792Z,80.80
2017-12-20T00:03:57.292Z,80.80
2017-12-20T00:06:24.968Z,81.20
2017-12-20T00:08:52.444Z,81.40
2017-12-20T00:11:19.992Z,81.60
2017-12-20T00:13:47.471Z,81.70
2017-12-20T00:16:14.993Z,81.90
2017-12-20T00:18:42.467Z,82.00
2017-12-20T00:21:09.925Z,82.00
2017-12-20T00:23:37.401Z,82.00
2017-12-20T00:26:05.119Z,82.20
2017-12-20T00:28:32.648Z,82.10
2017-12-20T00:31:00.864Z,82.00
2017-12-20T00:33:28.456Z,82.00
2017-12-20T00:35:55.960Z,82.00
2017-12-20T00:38:23.470Z,81.90
2017-12-20T00:40:50.889Z,81.80
2017-12-20T00:43:18.806Z,81.60
2017-12-20T00:45:46.268Z,81.60
2017-12-20T00:48:13.813Z,81.70
2017-12-20T00:50:41.258Z,81.70
2017-12-20T00:53:08.774Z,81.60
2017-12-20T00:55:36.236Z,81.60
2017-12-20T00:58:03.697Z,81.50
2017-12-20T01:00:31.165Z,81.30
2017-12-20T01:02:58.770Z,81.00
2017-12-20T01:05:26.513Z,81.00
2017-12-20T01:07:54.125Z,81.30
2017-12-20T01:10:22.235Z,81.30
2017-12-20T01:12:49.745Z,81.30
2017-12-20T01:15:17.245Z,81.10
2017-12-20T01:17:44.676Z,81.00
2017-12-20T01:20:12.136Z,81.00
2017-12-20T01:22:39.696Z,81.00
2017-12-20T01:25:07.543Z,80.90
2017-12-20T01:27:36.419Z,80.90
2017-12-20T01:30:03.963Z,80.90
2017-12-20T01:32:31.544Z,80.90
2017-12-20T01:34:59.173Z,80.90
2017-12-20T01:37:26.795Z,80.90
2017-12-20T01:39:54.585Z,80.90
2017-12-20T01:42:22.508Z,80.80
2017-12-20T01:44:49.967Z,80.80
2017-12-20T01:47:17.454Z,80.80
2017-12-20T01:49:44.922Z,80.70
2017-12-20T01:52:12.354Z,80.70
2017-12-20T01:54:39.764Z,80.80
2017-12-20T01:57:07.245Z,80.70
2017-12-20T01:59:34.672Z,80.70
2017-12-20T02:02:02.500Z,80.70
2017-12-20T02:04:30.114Z,80.70
2017-12-20T02:06:58.454Z,80.80
2017-12-20T02:09:26.132Z,80.70
2017-12-20T02:11:53.604Z,80.80
2017-12-20T02:14:21.067Z,80.70
2017-12-20T02:16:48.523Z,80.60
2017-12-20T02:19:16.101Z,80.50
2017-12-20T02:21:43.552Z,80.50
2017-12-20T02:24:11.023Z,80.50
2017-12-20T02:26:38.664Z,80.60
2017-12-20T02:29:06.131Z,80.70
2017-12-20T02:31:33.637Z,80.70
2017-12-20T02:34:01.756Z,80.70
2017-12-20T02:36:29.348Z,80.70
2017-12-20T02:38:57.481Z,80.80
2017-12-20T02:41:25.151Z,80.80
2017-12-20T02:43:52.601Z,80.80
2017-12-20T02:46:20.127Z,80.80
2017-12-20T02:48:47.649Z,80.90
2017-12-20T02:51:16.342Z,81.00
2017-12-20T02:53:43.804Z,81.10
2017-12-20T02:56:11.271Z,81.10
2017-12-20T02:58:38.752Z,81.10
2017-12-20T03:01:06.197Z,81.10
2017-12-20T03:03:33.854Z,81.10
2017-12-20T03:06:01.433Z,81.10
2017-12-20T03:08:28.859Z,81.00
2017-12-20T03:10:56.413Z,80.90
2017-12-20T03:13:23.879Z,80.90
2017-12-20T03:15:51.407Z,80.90
2017-12-20T03:18:19.525Z,80.60
2017-12-20T03:20:47.667Z,80.70
2017-12-20T03:23:15.204Z,80.70
2017-12-20T03:25:42.880Z,80.80
2017-12-20T03:28:10.932Z,80.80
2017-12-20T03:30:38.469Z,81.00
2017-12-20T03:33:06.141Z,81.10
2017-12-20T03:35:33.588Z,81.00
2017-12-20T03:38:01.049Z,81.10
2017-12-20T03:40:28.499Z,81.10
2017-12-20T03:42:56.371Z,81.10
2017-12-20T03:45:25.167Z,81.10
2017-12-20T03:47:52.606Z,81.10
2017-12-20T03:50:20.080Z,81.00
2017-12-20T03:52:47.961Z,80.90
2017-12-20T03:55:15.443Z,80.90
2017-12-20T03:57:42.918Z,80.90
2017-12-20T04:00:10.399Z,80.90
2017-12-20T04:02:37.867Z,80.90
2017-12-20T04:05:05.290Z,81.10
2017-12-20T04:07:32.706Z,81.00
2017-12-20T04:10:00.131Z,81.10
2017-12-20T04:12:27.880Z,81.10
2017-12-20T04:14:55.645Z,81.10
2017-12-20T04:17:24.179Z,81.20
2017-12-20T04:19:52.177Z,81.20
2017-12-20T04:22:20.170Z,81.30
2017-12-20T04:24:48.028Z,81.30
2017-12-20T04:27:15.919Z,81.30
2017-12-20T04:29:43.502Z,81.20
2017-12-20T04:32:10.968Z,81.20
2017-12-20T04:34:38.444Z,81.10
2017-12-20T04:37:05.943Z,81.00
2017-12-20T04:39:33.838Z,81.00
2017-12-20T04:42:01.758Z,81.00
2017-12-20T04:44:29.230Z,81.00
2017-12-20T04:46:56.703Z,81.00
2017-12-20T04:49:24.565Z,81.00
2017-12-20T04:51:52.020Z,81.00
2017-12-20T04:54:19.492Z,81.10
2017-12-20T04:56:47.108Z,81.10
2017-12-20T04:59:14.599Z,81.10
2017-12-20T05:01:42.063Z,81.10
2017-12-20T05:04:09.532Z,81.20
2017-12-20T05:06:37.006Z,81.20
2017-12-20T05:09:04.504Z,81.20
2017-12-20T05:11:31.949Z,81.10
2017-12-20T05:13:59.791Z,81.10
2017-12-20T05:16:27.671Z,81.00
2017-12-20T05:18:55.283Z,81.20
2017-12-20T05:21:22.707Z,81.10
2017-12-20T05:23:50.732Z,81.10
2017-12-20T05:26:18.387Z,81.10
2017-12-20T05:28:45.893Z,81.10
2017-12-20T05:31:13.412Z,81.10
2017-12-20T05:33:41.189Z,81.10
2017-12-20T05:36:08.918Z,81.10
2017-12-20T05:38:36.814Z,81.10
2017-12-20T05:41:04.897Z,81.10
2017-12-20T05:43:33.215Z,81.10
2017-12-20T05:46:00.727Z,81.20
2017-12-20T05:48:28.738Z,81.10
2017-12-20T05:50:56.371Z,81.10
2017-12-20T05:53:24.306Z,81.00
2017-12-20T05:55:51.985Z,81.00
2017-12-20T05:58:19.566Z,80.90
2017-12-20T06:00:47.405Z,81.10
2017-12-20T06:03:14.876Z,81.10
2017-12-20T06:05:42.728Z,81.30
2017-12-20T06:08:10.155Z,81.30
2017-12-20T06:10:37.625Z,81.30
2017-12-20T06:13:05.179Z,81.30
2017-12-20T06:15:32.631Z,81.30
2017-12-20T06:18:00.112Z,81.20
2017-12-20T06:20:27.563Z,81.10
2017-12-20T06:22:55.029Z,81.10
2017-12-20T06:25:22.472Z,81.00
2017-12-20T06:27:50.506Z,80.90
2017-12-20T06:30:18.934Z,80.90
2017-12-20T06:32:46.784Z,80.90
2017-12-20T06:35:14.862Z,81.00
2017-12-20T06:37:42.274Z,81.00
2017-12-20T06:40:09.736Z,81.00
2017-12-20T06:42:37.179Z,81.10
2017-12-20T06:45:04.731Z,81.10
2017-12-20T06:47:32.729Z,81.20
2017-12-20T06:50:00.376Z,81.20
2017-12-20T06:52:28.222Z,81.20
2017-12-20T06:54:55.756Z,81.20
2017-12-20T06:57:23.347Z,81.40
2017-12-20T06:59:50.866Z,81.60
2017-12-20T07:02:18.356Z,81.70
2017-12-20T07:04:45.778Z,81.60
2017-12-20T07:07:13.527Z,81.50
2017-12-20T07:09:41.009Z,81.40
2017-12-20T07:12:08.590Z,81.40
2017-12-20T07:14:36.351Z,81.50
2017-12-20T07:17:04.190Z,81.40
2017-12-20T07:19:32.259Z,81.30
2017-12-20T07:22:00.253Z,81.20
2017-12-20T07:24:27.826Z,81.20
2017-12-20T07:26:55.268Z,81.20
2017-12-20T07:29:24.954Z,81.20
2017-12-20T07:31:52.810Z,81.10
2017-12-20T07:34:20.966Z,81.10
2017-12-20T07:36:48.697Z,81.10
2017-12-20T07:39:16.155Z,81.10
2017-12-20T07:41:43.675Z,81.20
2017-12-20T07:44:11.176Z,81.20
2017-12-20T07:46:38.614Z,81.10
2017-12-20T07:49:06.473Z,81.20
2017-12-20T07:51:34.320Z,81.10
2017-12-20T07:54:01.766Z,81.10
2017-12-20T07:56:29.217Z,81.20
2017-12-20T07:58:56.668Z,81.30
2017-12-20T08:01:24.071Z,81.40
2017-12-20T08:03:51.532Z,81.40
2017-12-20T08:06:18.971Z,81.40
2017-12-20T08:08:46.415Z,81.40
2017-12-20T08:11:13.921Z,81.50
2017-12-20T08:13:41.379Z,81.40
2017-12-20T08:16:09.829Z,81.30
2017-12-20T08:18:37.430Z,81.30
2017-12-20T08:21:05.540Z,81.20
2017-12-20T08:23:33.447Z,81.10
2017-12-20T08:26:00.924Z,81.10
2017-12-20T08:28:28.357Z,81.10
2017-12-20T08:30:55.828Z,81.10
2017-12-20T08:33:23.284Z,81.10
2017-12-20T08:35:50.777Z,81.00
2017-12-20T08:38:18.194Z,81.00
2017-12-20T08:40:45.667Z,80.90
2017-12-20T08:43:13.093Z,80.90
2017-12-20T08:45:41.018Z,81.00
2017-12-20T08:48:08.475Z,80.90
2017-12-20T08:50:35.877Z,81.00
2017-12-20T08:53:03.432Z,80.90
2017-12-20T08:55:30.896Z,80.90
2017-12-20T08:57:58.321Z,80.90
2017-12-20T09:00:25.776Z,80.90
2017-12-20T09:02:53.238Z,80.90
2017-12-20T09:05:20.717Z,80.90
2017-12-20T09:07:48.418Z,80.90
2017-12-20T09:10:16.397Z,80.80
2017-12-20T09:12:44.326Z,80.90
2017-12-20T09:15:11.765Z,80.90
2017-12-20T09:17:39.273Z,80.90
2017-12-20T09:20:06.716Z,81.00
2017-12-20T09:22:34.180Z,81.00
2017-12-20T09:25:01.600Z,81.10
2017-12-20T09:27:29.094Z,81.10
2017-12-20T09:29:56.542Z,81.10
2017-12-20T09:32:23.975Z,81.00
2017-12-20T09:34:51.809Z,80.90
2017-12-20T09:37:19.271Z,80.90
2017-12-20T09:39:46.700Z,80.90
2017-12-20T09:42:14.186Z,81.00
2017-12-20T09:44:42.206Z,80.80
2017-12-20T09:47:09.840Z,80.90
2017-12-20T09:49:37.262Z,80.80
2017-12-20T09:52:04.749Z,80.70
2017-12-20T09:54:32.804Z,80.80
2017-12-20T09:57:00.251Z,81.00
2017-12-20T09:59:28.080Z,81.20
2017-12-20T10:01:55.497Z,81.20
2017-12-20T10:04:22.924Z,81.00
2017-12-20T10:06:50.759Z,80.80
2017-12-20T10:09:18.186Z,80.80
2017-12-20T10:11:45.617Z,80.70
2017-12-20T10:14:13.546Z,80.70
2017-12-20T10:16:41.961Z,80.70
2017-12-20T10:19:09.826Z,80.90
2017-12-20T10:21:37.239Z,80.90
2017-12-20T10:24:04.724Z,81.00
2017-12-20T10:26:32.160Z,81.10
2017-12-20T10:28:59.620Z,81.20
2017-12-20T10:31:27.059Z,81.00
2017-12-20T10:33:54.496Z,80.90
2017-12-20T10:36:22.006Z,80.90
2017-12-20T10:38:49.493Z,80.80
2017-12-20T10:41:16.938Z,80.90
2017-12-20T10:43:44.384Z,80.90
2017-12-20T10:46:11.812Z,81.10
2017-12-20T10:48:40.678Z,81.20
2017-12-20T10:51:08.127Z,81.20
2017-12-20T10:53:35.636Z,81.30
2017-12-20T10:56:03.562Z,81.20
2017-12-20T10:58:31.000Z,81.20
2017-12-20T11:00:58.472Z,81.10
2017-12-20T11:03:25.927Z,81.10
2017-12-20T11:05:53.397Z,81.00
2017-12-20T11:08:20.904Z,80.90
2017-12-20T11:10:50.458Z,80.90
2017-12-20T11:13:17.994Z,80.80
2017-12-20T11:15:45.960Z,80.90
2017-12-20T11:18:13.408Z,80.90
2017-12-20T11:20:41.343Z,80.80
2017-12-20T11:23:08.926Z,80.80
2017-12-20T11:25:36.489Z,80.80
2017-12-20T11:28:04.108Z,80.90
2017-12-20T11:30:32.033Z,80.90
2017-12-20T11:32:59.661Z,81.00
2017-12-20T11:35:27.119Z,80.90
2017-12-20T11:37:54.620Z,81.00
2017-12-20T11:40:22.085Z,80.90
2017-12-20T11:42:49.750Z,81.00
2017-12-20T11:45:17.305Z,80.90
2017-12-20T11:47:44.826Z,80.90
2017-12-20T11:50:12.844Z,80.90
2017-12-20T11:52:40.460Z,80.90
2017-12-20T11:55:08.371Z,81.10
2017-12-20T11:57:36.224Z,81.10
2017-12-20T12:00:03.736Z,81.10
2017-12-20T12:02:31.235Z,81.10
2017-12-20T12:04:59.145Z,81.30
2017-12-20T12:07:26.638Z,81.30
2017-12-20T12:09:54.111Z,81.30
2017-12-20T12:12:22.056Z,81.50
2017-12-20T12:14:49.504Z,81.50
2017-12-20T12:17:16.963Z,81.60
2017-12-20T12:19:44.398Z,81.80
2017-12-20T12:22:11.938Z,82.00
2017-12-20T12:24:39.916Z,82.20
2017-12-20T12:27:07.806Z,82.30
2017-12-20T12:29:35.279Z,82.30
2017-12-20T12:32:02.794Z,82.30
2017-12-20T12:34:30.665Z,82.20
2017-12-20T12:36:58.829Z,82.20
2017-12-20T12:39:26.313Z,82.10
2017-12-20T12:41:53.762Z,81.90
2017-12-20T12:44:21.184Z,81.90
2017-12-20T12:46:48.645Z,81.90
2017-12-20T12:49:16.162Z,81.70
2017-12-20T12:51:43.701Z,81.70
2017-12-20T12:54:11.166Z,81.60
2017-12-20T12:56:39.021Z,81.50
2017-12-20T12:59:06.490Z,81.50
2017-12-20T13:01:33.932Z,81.30
2017-12-20T13:04:01.407Z,81.30
2017-12-20T13:06:28.987Z,81.20
2017-12-20T13:08:56.462Z,81.10
2017-12-20T13:11:23.969Z,80.90
2017-12-20T13:13:51.733Z,80.70
2017-12-20T13:16:19.172Z,80.70
2017-12-20T13:18:47.075Z,80.70
2017-12-20T13:21:14.525Z,80.70
2017-12-20T13:23:41.991Z,80.40
2017-12-20T13:26:09.786Z,80.40
2017-12-20T13:28:37.277Z,80.30
2017-12-20T13:31:04.749Z,80.30
2017-12-20T13:33:32.196Z,80.40
2017-12-20T13:35:59.674Z,80.30
2017-12-20T13:38:27.110Z,80.30
2017-12-20T13:40:54.652Z,80.10
2017-12-20T13:43:22.106Z,80.20
2017-12-20T13:45:49.566Z,80.10
2017-12-20T13:48:17.015Z,80.20
2017-12-20T13:50:45.040Z,80.10
2017-12-20T13:53:12.636Z,80.10
2017-12-20T13:55:40.517Z,80.20
2017-12-20T13:58:07.968Z,80.20
2017-12-20T14:00:35.906Z,80.40
2017-12-20T14:03:03.344Z,80.40
2017-12-20T14:05:30.810Z,80.50
2017-12-20T14:07:58.569Z,80.50
2017-12-20T14:10:26.088Z,80.50
2017-12-20T14:12:53.544Z,80.60
2017-12-20T14:15:21.486Z,80.90
2017-12-20T14:17:48.950Z,80.90
2017-12-20T14:20:16.576Z,80.90
2017-12-20T14:22:44.540Z,81.00
2017-12-20T14:25:12.463Z,80.90
2017-12-20T14:27:39.911Z,80.90
2017-12-20T14:30:07.387Z,80.90
2017-12-20T14:32:35.197Z,80.90
2017-12-20T14:35:03.019Z,81.00
2017-12-20T14:37:30.467Z,81.00
2017-12-20T14:39:58.017Z,81.00
2017-12-20T14:42:25.487Z,81.00
2017-12-20T14:44:52.943Z,81.00
2017-12-20T14:47:20.386Z,81.20
2017-12-20T14:49:47.869Z,81.20
2017-12-20T14:52:15.328Z,81.20
2017-12-20T14:54:42.765Z,81.00
2017-12-20T14:57:10.719Z,81.10
2017-12-20T14:59:39.036Z,81.10
2017-12-20T15:02:06.477Z,81.20
2017-12-20T15:04:34.327Z,81.40
2017-12-20T15:07:02.288Z,81.40
2017-12-20T15:09:29.715Z,81.40
2017-12-20T15:11:57.187Z,81.40
2017-12-20T15:14:24.622Z,81.30
2017-12-20T15:16:52.125Z,81.30
2017-12-20T15:19:19.641Z,81.30
2017-12-20T15:21:47.474Z,81.40
2017-12-20T15:24:14.914Z,81.40
2017-12-20T15:26:42.445Z,81.40
2017-12-20T15:29:10.257Z,81.40
2017-12-20T15:31:37.732Z,81.40
2017-12-20T15:34:05.705Z,81.50
2017-12-20T15:36:33.140Z,81.50
2017-12-20T15:39:00.616Z,81.40
2017-12-20T15:41:28.051Z,81.50
2017-12-20T15:43:55.521Z,81.50
2017-12-20T15:46:23.011Z,81.50
2017-12-20T15:48:50.636Z,81.50
2017-12-20T15:51:18.100Z,81.40
2017-12-20T15:53:45.564Z,81.50
2017-12-20T15:56:13.011Z,81.50
2017-12-20T15:58:41.121Z,81.50
2017-12-20T16:01:08.561Z,81.50
2017-12-20T16:03:36.047Z,81.60
2017-12-20T16:06:03.472Z,81.60
2017-12-20T16:08:30.962Z,81.50
2017-12-20T16:10:58.392Z,81.60
2017-12-20T16:13:25.812Z,81.60
2017-12-20T16:15:53.277Z,81.60
2017-12-20T16:18:20.736Z,81.60
2017-12-20T16:20:48.168Z,81.70
2017-12-20T16:23:15.628Z,81.60
2017-12-20T16:25:43.095Z,81.70
2017-12-20T16:28:10.501Z,81.70
2017-12-20T16:30:38.367Z,81.70
2017-12-20T16:33:06.276Z,81.80
2017-12-20T16:35:33.728Z,81.80
2017-12-20T16:38:01.159Z,81.80
2017-12-20T16:40:29.060Z,81.60
2017-12-20T16:42:56.503Z,81.70
2017-12-20T16:45:24.367Z,81.70
2017-12-20T16:47:51.815Z,81.70
2017-12-20T16:50:19.225Z,81.60
2017-12-20T16:52:46.662Z,81.60
2017-12-20T16:55:14.080Z,81.60
2017-12-20T16:57:41.560Z,81.50
2017-12-20T17:00:09.480Z,81.20
2017-12-20T17:02:36.941Z,81.20
2017-12-20T17:05:04.354Z,81.30
2017-12-20T17:07:33.212Z,81.50
2017-12-20T17:10:00.631Z,81.40
2017-12-20T17:12:28.055Z,81.40
2017-12-20T17:14:55.620Z,81.40
2017-12-20T17:17:23.096Z,81.30
2017-12-20T17:19:50.516Z,81.40
2017-12-20T17:22:18.149Z,81.30
2017-12-20T17:24:45.601Z,81.40
2017-12-20T17:27:13.488Z,81.40
2017-12-20T17:29:40.992Z,81.40
2017-12-20T17:32:08.559Z,81.30
2017-12-20T17:34:36.076Z,81.30
2017-12-20T17:37:03.608Z,81.30
2017-12-20T17:39:31.059Z,81.30
2017-12-20T17:41:58.576Z,81.30
2017-12-20T17:44:26.105Z,81.30
2017-12-20T17:46:53.566Z,81.40
2017-12-20T17:49:22.052Z,81.40
2017-12-20T17:51:49.500Z,81.30
2017-12-20T17:54:16.942Z,81.40
2017-12-20T17:56:44.402Z,81.50
2017-12-20T17:59:11.867Z,81.50
2017-12-20T18:01:39.427Z,81.50
2017-12-20T18:04:06.895Z,81.50
2017-12-20T18:06:34.516Z,81.50
2017-12-20T18:09:02.022Z,81.70
2017-12-20T18:11:29.502Z,81.70
2017-12-20T18:13:57.042Z,81.80
2017-12-20T18:16:26.037Z,81.80
2017-12-20T18:18:53.558Z,81.70
2017-12-20T18:21:21.031Z,81.80
2017-12-20T18:23:48.534Z,81.80
2017-12-20T18:26:16.009Z,81.80
2017-12-20T18:28:43.451Z,81.80
2017-12-20T18:31:10.899Z,81.80
2017-12-20T18:33:38.384Z,81.70
2017-12-20T18:36:05.862Z,81.70
2017-12-20T18:38:33.344Z,81.70
2017-12-20T18:41:01.294Z,81.70
2017-12-20T18:43:28.871Z,81.70
2017-12-20T18:45:56.375Z,81.60
2017-12-20T18:48:23.933Z,81.60
2017-12-20T18:50:52.413Z,81.60
2017-12-20T18:53:19.938Z,81.60
2017-12-20T18:55:47.467Z,81.60
2017-12-20T18:58:15.110Z,81.70
2017-12-20T19:00:42.532Z,81.70
2017-12-20T19:03:10.378Z,81.90
2017-12-20T19:05:37.871Z,81.90
2017-12-20T19:08:06.042Z,81.80
2017-12-20T19:10:33.603Z,81.80
2017-12-20T19:13:01.640Z,81.80
2017-12-20T19:15:29.109Z,81.80
2017-12-20T19:17:56.668Z,81.80
2017-12-20T19:20:24.146Z,81.70
2017-12-20T19:22:51.631Z,81.70
2017-12-20T19:25:19.137Z,81.70
2017-12-20T19:27:46.835Z,81.70
2017-12-20T19:30:14.288Z,81.70
2017-12-20T19:32:41.852Z,81.50
2017-12-20T19:35:09.316Z,81.50
2017-12-20T19:37:36.800Z,81.50
2017-12-20T19:40:04.258Z,81.40
2017-12-20T19:42:31.795Z,81.50
2017-12-20T19:44:59.458Z,81.60
2017-12-20T19:47:26.989Z,81.60
2017-12-20T19:49:55.540Z,81.60
2017-12-20T19:52:23.002Z,81.60
2017-12-20T19:54:50.437Z,81.50
2017-12-20T19:57:17.885Z,81.50
2017-12-20T19:59:45.399Z,81.70
2017-12-20T20:02:12.846Z,81.80
2017-12-20T20:04:40.573Z,81.90
2017-12-20T20:07:08.065Z,81.90
2017-12-20T20:09:35.600Z,81.90
2017-12-20T20:12:03.139Z,81.90
2017-12-20T20:14:30.640Z,81.90
2017-12-20T20:16:58.115Z,81.90
2017-12-20T20:19:25.561Z,81.90
2017-12-20T20:21:53.050Z,81.90
2017-12-20T20:24:20.507Z,81.80
2017-12-20T20:26:48.291Z,81.80
2017-12-20T20:29:15.727Z,81.70
2017-12-20T20:31:43.590Z,81.70
2017-12-20T20:34:11.098Z,81.80
2017-12-20T20:36:38.695Z,81.70
2017-12-20T20:39:06.261Z,81.80
2017-12-20T20:41:34.148Z,81.90
2017-12-20T20:44:01.702Z,81.90
2017-12-20T20:46:29.488Z,81.90
2017-12-20T20:48:56.975Z,81.90
2017-12-20T20:51:24.440Z,81.90
2017-12-20T20:53:51.983Z,81.80
2017-12-20T20:56:19.536Z,81.90
2017-12-20T20:58:47.003Z,81.90
2017-12-20T21:01:14.506Z,81.80
2017-12-20T21:03:42.309Z,81.80
2017-12-20T21:06:10.244Z,81.80
2017-12-20T21:08:37.858Z,81.80
2017-12-20T21:11:05.649Z,81.80
2017-12-20T21:13:33.151Z,81.70
2017-12-20T21:16:01.016Z,81.80
2017-12-20T21:18:29.398Z,81.80
2017-12-20T21:20:56.860Z,81.80
2017-12-20T21:23:24.721Z,81.80
2017-12-20T21:25:52.175Z,81.80
2017-12-20T21:28:20.936Z,81.90
2017-12-20T21:30:48.586Z,81.90
2017-12-20T21:33:16.960Z,81.90
2017-12-20T21:35:44.798Z,81.90
2017-12-20T21:38:12.299Z,81.90
2017-12-20T21:40:39.792Z,82.00
2017-12-20T21:43:07.298Z,81.90
2017-12-20T21:45:34.749Z,82.00
2017-12-20T21:48:02.192Z,82.00
2017-12-20T21:50:29.650Z,81.90
2017-12-20T21:52:57.167Z,81.90
2017-12-20T21:55:24.731Z,81.90
2017-12-20T21:57:52.577Z,81.90
2017-12-20T22:00:20.065Z,81.90
2017-12-20T22:02:48.155Z,81.80
2017-12-20T22:05:15.777Z,81.80
2017-12-20T22:07:43.275Z,81.80
2017-12-20T22:10:10.860Z,81.90
2017-12-20T22:12:38.396Z,82.00
2017-12-20T22:15:05.944Z,82.00
2017-12-20T22:17:33.829Z,81.80
2017-12-20T22:20:01.352Z,81.80
2017-12-20T22:22:28.870Z,81.80
2017-12-20T22:24:56.347Z,81.80
2017-12-20T22:27:23.857Z,81.90
2017-12-20T22:29:51.755Z,81.90
2017-12-20T22:32:19.534Z,81.90
2017-12-20T22:34:47.715Z,81.80
2017-12-20T22:37:15.212Z,81.80
2017-12-20T22:39:42.839Z,81.80
2017-12-20T22:42:10.356Z,81.80
2017-12-20T22:44:37.825Z,81.80
2017-12-20T22:47:06.227Z,81.90
2017-12-20T22:49:34.115Z,81.90
2017-12-20T22:52:01.818Z,81.90
2017-12-20T22:54:29.319Z,81.80
2017-12-20T22:56:57.459Z,81.90
2017-12-20T22:59:24.945Z,81.90
2017-12-20T23:01:53.444Z,81.90
2017-12-20T23:04:21.408Z,81.70
2017-12-20T23:06:48.919Z,81.70
2017-12-20T23:09:16.460Z,81.70
2017-12-20T23:11:44.007Z,81.70
2017-12-20T23:14:11.566Z,81.80
2017-12-20T23:16:39.044Z,81.80
2017-12-20T23:19:06.978Z,81.90
2017-12-20T23:21:34.533Z,81.90
2017-12-20T23:24:02.239Z,81.80
2017-12-20T23:26:30.143Z,81.80
2017-12-20T23:28:57.639Z,81.90
2017-12-20T23:31:25.079Z,81.90
2017-12-20T23:33:52.553Z,81.90
2017-12-20T23:36:20.031Z,81.90
2017-12-20T23:38:47.463Z,81.90
2017-12-20T23:41:14.912Z,81.80
2017-12-20T23:43:42.351Z,81.60
2017-12-20T23:46:10.885Z,81.70
2017-12-20T23:48:38.319Z,81.70
2017-12-20T23:51:05.823Z,81.70
2017-12-20T23:53:33.280Z,81.80
2017-12-20T23:56:01.116Z,81.70
2017-12-20T23:58:28.673Z,81.70
